sensor_id;sensor_type;location;lat;lon;timestamp;P1;durP1;ratioP1;P2;durP2;ratioP2
67816;SDS011;54614;47.576;7.524;2023-06-14T00:00:58;7.00;;;4.40;;
67816;SDS011;54614;47.576;7.524;2023-06-14T00:03:24;5.13;;;4.03;;
67816;SDS011;54614;47.576;7.524;2023-06-14T00:05:51;6.40;;;4.20;;
67816;SDS011;54614;47.576;7.524;2023-06-14T00:08:17;5.60;;;4.45;;
67816;SDS011;54614;47.576;7.524;2023-06-14T00:10:43;5.00;;;4.10;;
67816;SDS011;54614;47.576;7.524;2023-06-14T00:13:09;5.67;;;3.93;;
67816;SDS011;54614;47.576;7.524;2023-06-14T00:15:36;5.13;;;4.10;;
67816;SDS011;54614;47.576;7.524;2023-06-14T00:18:02;4.53;;;3.97;;
67816;SDS011;54614;47.576;7.524;2023-06-14T00:20:30;6.13;;;3.90;;
67816;SDS011;54614;47.576;7.524;2023-06-14T00:23:00;5.68;;;4.10;;
67816;SDS011;54614;47.576;7.524;2023-06-14T00:25:27;7.30;;;4.18;;
67816;SDS011;54614;47.576;7.524;2023-06-14T00:27:54;4.57;;;4.07;;
67816;SDS011;54614;47.576;7.524;2023-06-14T00:30:20;6.47;;;3.90;;
67816;SDS011;54614;47.576;7.524;2023-06-14T00:32:46;6.30;;;4.23;;
67816;SDS011;54614;47.576;7.524;2023-06-14T00:35:13;5.83;;;3.73;;
67816;SDS011;54614;47.576;7.524;2023-06-14T00:37:39;6.80;;;4.03;;
67816;SDS011;54614;47.576;7.524;2023-06-14T00:40:05;5.97;;;4.05;;
67816;SDS011;54614;47.576;7.524;2023-06-14T00:42:32;5.17;;;4.07;;
67816;SDS011;54614;47.576;7.524;2023-06-14T00:44:59;4.23;;;3.67;;
67816;SDS011;54614;47.576;7.524;2023-06-14T00:47:25;6.20;;;3.90;;
67816;SDS011;54614;47.576;7.524;2023-06-14T00:49:51;5.60;;;3.93;;
67816;SDS011;54614;47.576;7.524;2023-06-14T00:52:20;5.57;;;4.03;;
67816;SDS011;54614;47.576;7.524;2023-06-14T00:54:49;5.73;;;4.07;;
67816;SDS011;54614;47.576;7.524;2023-06-14T00:57:14;4.77;;;4.10;;
67816;SDS011;54614;47.576;7.524;2023-06-14T00:59:45;4.90;;;3.83;;
67816;SDS011;54614;47.576;7.524;2023-06-14T01:02:13;5.97;;;4.20;;
67816;SDS011;54614;47.576;7.524;2023-06-14T01:04:40;4.33;;;3.67;;
67816;SDS011;54614;47.576;7.524;2023-06-14T01:07:19;5.20;;;3.80;;
67816;SDS011;54614;47.576;7.524;2023-06-14T01:15:35;5.27;;;4.00;;
67816;SDS011;54614;47.576;7.524;2023-06-14T01:18:03;5.07;;;3.90;;
67816;SDS011;54614;47.576;7.524;2023-06-14T01:20:30;6.00;;;4.00;;
67816;SDS011;54614;47.576;7.524;2023-06-14T01:23:01;4.73;;;4.13;;
67816;SDS011;54614;47.576;7.524;2023-06-14T01:25:27;5.17;;;4.00;;
67816;SDS011;54614;47.576;7.524;2023-06-14T01:27:55;4.97;;;3.90;;
67816;SDS011;54614;47.576;7.524;2023-06-14T01:30:27;4.27;;;3.87;;
67816;SDS011;54614;47.576;7.524;2023-06-14T01:32:58;7.90;;;3.63;;
67816;SDS011;54614;47.576;7.524;2023-06-14T01:35:24;5.63;;;3.90;;
67816;SDS011;54614;47.576;7.524;2023-06-14T01:37:50;4.60;;;4.10;;
67816;SDS011;54614;47.576;7.524;2023-06-14T01:40:18;4.63;;;4.07;;
67816;SDS011;54614;47.576;7.524;2023-06-14T01:42:46;5.27;;;4.00;;
67816;SDS011;54614;47.576;7.524;2023-06-14T01:45:15;4.70;;;3.90;;
67816;SDS011;54614;47.576;7.524;2023-06-14T01:47:42;4.60;;;4.13;;
67816;SDS011;54614;47.576;7.524;2023-06-14T01:50:10;5.53;;;3.80;;
67816;SDS011;54614;47.576;7.524;2023-06-14T01:52:36;5.43;;;4.27;;
67816;SDS011;54614;47.576;7.524;2023-06-14T01:55:06;5.37;;;4.20;;
67816;SDS011;54614;47.576;7.524;2023-06-14T01:57:33;5.13;;;4.20;;
67816;SDS011;54614;47.576;7.524;2023-06-14T01:59:58;4.97;;;3.77;;
67816;SDS011;54614;47.576;7.524;2023-06-14T02:02:24;4.87;;;4.10;;
67816;SDS011;54614;47.576;7.524;2023-06-14T02:04:50;6.53;;;4.17;;
67816;SDS011;54614;47.576;7.524;2023-06-14T02:07:17;5.60;;;3.90;;
67816;SDS011;54614;47.576;7.524;2023-06-14T02:09:43;5.67;;;4.10;;
67816;SDS011;54614;47.576;7.524;2023-06-14T02:12:08;5.20;;;3.87;;
67816;SDS011;54614;47.576;7.524;2023-06-14T02:14:35;6.10;;;4.17;;
67816;SDS011;54614;47.576;7.524;2023-06-14T02:17:01;4.67;;;3.83;;
67816;SDS011;54614;47.576;7.524;2023-06-14T02:19:27;5.20;;;4.10;;
67816;SDS011;54614;47.576;7.524;2023-06-14T02:21:53;5.60;;;3.90;;
67816;SDS011;54614;47.576;7.524;2023-06-14T02:24:19;6.57;;;4.10;;
67816;SDS011;54614;47.576;7.524;2023-06-14T02:26:45;5.70;;;4.10;;
67816;SDS011;54614;47.576;7.524;2023-06-14T02:29:10;5.77;;;3.87;;
67816;SDS011;54614;47.576;7.524;2023-06-14T02:31:39;5.13;;;4.10;;
67816;SDS011;54614;47.576;7.524;2023-06-14T02:34:05;5.67;;;3.97;;
67816;SDS011;54614;47.576;7.524;2023-06-14T02:36:33;6.80;;;4.13;;
67816;SDS011;54614;47.576;7.524;2023-06-14T02:39:07;7.27;;;4.03;;
67816;SDS011;54614;47.576;7.524;2023-06-14T02:41:36;5.13;;;3.93;;
67816;SDS011;54614;47.576;7.524;2023-06-14T02:44:03;5.80;;;4.20;;
67816;SDS011;54614;47.576;7.524;2023-06-14T02:46:29;7.13;;;4.00;;
67816;SDS011;54614;47.576;7.524;2023-06-14T02:48:54;4.63;;;4.00;;
67816;SDS011;54614;47.576;7.524;2023-06-14T02:51:20;5.40;;;3.90;;
67816;SDS011;54614;47.576;7.524;2023-06-14T02:53:46;4.13;;;3.73;;
67816;SDS011;54614;47.576;7.524;2023-06-14T02:56:12;5.40;;;3.97;;
67816;SDS011;54614;47.576;7.524;2023-06-14T02:58:38;5.57;;;4.30;;
67816;SDS011;54614;47.576;7.524;2023-06-14T03:01:04;6.17;;;4.10;;
67816;SDS011;54614;47.576;7.524;2023-06-14T03:03:32;7.27;;;4.23;;
67816;SDS011;54614;47.576;7.524;2023-06-14T03:05:59;4.70;;;4.10;;
67816;SDS011;54614;47.576;7.524;2023-06-14T03:08:29;6.00;;;3.97;;
67816;SDS011;54614;47.576;7.524;2023-06-14T03:10:58;5.20;;;4.10;;
67816;SDS011;54614;47.576;7.524;2023-06-14T03:13:24;5.47;;;4.10;;
67816;SDS011;54614;47.576;7.524;2023-06-14T03:15:49;5.00;;;4.10;;
67816;SDS011;54614;47.576;7.524;2023-06-14T03:18:16;5.40;;;3.77;;
67816;SDS011;54614;47.576;7.524;2023-06-14T03:20:42;5.13;;;3.70;;
67816;SDS011;54614;47.576;7.524;2023-06-14T03:23:10;4.80;;;3.90;;
67816;SDS011;54614;47.576;7.524;2023-06-14T03:25:37;4.80;;;4.07;;
67816;SDS011;54614;47.576;7.524;2023-06-14T03:28:05;7.20;;;4.00;;
67816;SDS011;54614;47.576;7.524;2023-06-14T03:30:31;5.83;;;4.30;;
67816;SDS011;54614;47.576;7.524;2023-06-14T03:32:57;6.83;;;4.57;;
67816;SDS011;54614;47.576;7.524;2023-06-14T03:35:26;4.80;;;3.77;;
67816;SDS011;54614;47.576;7.524;2023-06-14T03:37:54;4.57;;;3.90;;
67816;SDS011;54614;47.576;7.524;2023-06-14T03:40:20;5.60;;;4.00;;
67816;SDS011;54614;47.576;7.524;2023-06-14T03:42:46;5.07;;;4.10;;
67816;SDS011;54614;47.576;7.524;2023-06-14T03:45:12;6.50;;;4.27;;
67816;SDS011;54614;47.576;7.524;2023-06-14T03:47:38;5.67;;;4.53;;
67816;SDS011;54614;47.576;7.524;2023-06-14T03:50:04;7.67;;;4.40;;
67816;SDS011;54614;47.576;7.524;2023-06-14T03:52:30;5.70;;;4.33;;
67816;SDS011;54614;47.576;7.524;2023-06-14T03:54:57;8.87;;;4.30;;
67816;SDS011;54614;47.576;7.524;2023-06-14T03:57:25;4.77;;;4.23;;
67816;SDS011;54614;47.576;7.524;2023-06-14T03:59:51;6.57;;;4.30;;
67816;SDS011;54614;47.576;7.524;2023-06-14T04:02:17;5.77;;;4.40;;
67816;SDS011;54614;47.576;7.524;2023-06-14T04:04:43;7.53;;;4.00;;
67816;SDS011;54614;47.576;7.524;2023-06-14T04:07:13;4.30;;;3.90;;
67816;SDS011;54614;47.576;7.524;2023-06-14T04:09:45;5.70;;;4.20;;
67816;SDS011;54614;47.576;7.524;2023-06-14T04:12:11;5.50;;;3.70;;
67816;SDS011;54614;47.576;7.524;2023-06-14T04:14:38;5.53;;;3.97;;
67816;SDS011;54614;47.576;7.524;2023-06-14T04:17:05;4.33;;;3.90;;
67816;SDS011;54614;47.576;7.524;2023-06-14T04:19:32;4.80;;;3.87;;
67816;SDS011;54614;47.576;7.524;2023-06-14T04:22:00;4.30;;;3.67;;
67816;SDS011;54614;47.576;7.524;2023-06-14T04:24:27;4.57;;;3.67;;
67816;SDS011;54614;47.576;7.524;2023-06-14T04:26:57;4.10;;;3.47;;
67816;SDS011;54614;47.576;7.524;2023-06-14T04:29:28;4.57;;;3.60;;
67816;SDS011;54614;47.576;7.524;2023-06-14T04:31:54;4.53;;;3.50;;
67816;SDS011;54614;47.576;7.524;2023-06-14T04:34:25;3.93;;;3.53;;
67816;SDS011;54614;47.576;7.524;2023-06-14T04:36:54;4.37;;;3.40;;
67816;SDS011;54614;47.576;7.524;2023-06-14T04:39:21;3.80;;;3.40;;
67816;SDS011;54614;47.576;7.524;2023-06-14T04:41:48;3.73;;;3.43;;
67816;SDS011;54614;47.576;7.524;2023-06-14T04:44:18;3.50;;;3.20;;
67816;SDS011;54614;47.576;7.524;2023-06-14T04:46:45;3.70;;;3.23;;
67816;SDS011;54614;47.576;7.524;2023-06-14T04:49:14;4.17;;;3.77;;
67816;SDS011;54614;47.576;7.524;2023-06-14T04:51:42;3.63;;;3.30;;
67816;SDS011;54614;47.576;7.524;2023-06-14T04:54:09;6.43;;;3.40;;
67816;SDS011;54614;47.576;7.524;2023-06-14T04:56:39;3.77;;;3.30;;
67816;SDS011;54614;47.576;7.524;2023-06-14T04:59:05;3.27;;;2.87;;
67816;SDS011;54614;47.576;7.524;2023-06-14T05:01:32;5.97;;;2.90;;
67816;SDS011;54614;47.576;7.524;2023-06-14T05:04:00;3.67;;;2.93;;
67816;SDS011;54614;47.576;7.524;2023-06-14T05:06:26;4.53;;;3.00;;
67816;SDS011;54614;47.576;7.524;2023-06-14T05:08:55;6.13;;;2.73;;
67816;SDS011;54614;47.576;7.524;2023-06-14T05:11:21;4.07;;;3.30;;
67816;SDS011;54614;47.576;7.524;2023-06-14T05:13:49;5.60;;;3.73;;
67816;SDS011;54614;47.576;7.524;2023-06-14T05:16:16;5.37;;;3.60;;
67816;SDS011;54614;47.576;7.524;2023-06-14T05:18:44;5.37;;;3.50;;
67816;SDS011;54614;47.576;7.524;2023-06-14T05:21:12;3.87;;;3.30;;
67816;SDS011;54614;47.576;7.524;2023-06-14T05:23:42;3.50;;;3.20;;
67816;SDS011;54614;47.576;7.524;2023-06-14T05:26:09;5.40;;;3.70;;
67816;SDS011;54614;47.576;7.524;2023-06-14T05:28:36;4.50;;;3.50;;
67816;SDS011;54614;47.576;7.524;2023-06-14T05:31:02;4.40;;;3.80;;
67816;SDS011;54614;47.576;7.524;2023-06-14T05:33:28;6.33;;;4.00;;
67816;SDS011;54614;47.576;7.524;2023-06-14T05:35:54;6.00;;;3.90;;
67816;SDS011;54614;47.576;7.524;2023-06-14T05:38:20;5.10;;;4.30;;
67816;SDS011;54614;47.576;7.524;2023-06-14T05:40:46;6.33;;;3.83;;
67816;SDS011;54614;47.576;7.524;2023-06-14T05:43:12;3.80;;;3.40;;
67816;SDS011;54614;47.576;7.524;2023-06-14T05:45:38;4.20;;;3.50;;
67816;SDS011;54614;47.576;7.524;2023-06-14T05:48:04;8.13;;;4.30;;
67816;SDS011;54614;47.576;7.524;2023-06-14T05:50:30;12.53;;;3.50;;
67816;SDS011;54614;47.576;7.524;2023-06-14T05:52:56;6.20;;;3.33;;
67816;SDS011;54614;47.576;7.524;2023-06-14T05:55:22;11.03;;;3.57;;
67816;SDS011;54614;47.576;7.524;2023-06-14T05:57:48;4.40;;;3.20;;
67816;SDS011;54614;47.576;7.524;2023-06-14T06:00:14;4.73;;;3.40;;
67816;SDS011;54614;47.576;7.524;2023-06-14T06:02:41;5.27;;;3.40;;
67816;SDS011;54614;47.576;7.524;2023-06-14T06:05:08;5.13;;;3.60;;
67816;SDS011;54614;47.576;7.524;2023-06-14T06:07:36;5.70;;;3.50;;
67816;SDS011;54614;47.576;7.524;2023-06-14T06:10:02;10.27;;;3.50;;
67816;SDS011;54614;47.576;7.524;2023-06-14T06:12:30;7.43;;;3.40;;
67816;SDS011;54614;47.576;7.524;2023-06-14T06:14:56;4.63;;;3.40;;
67816;SDS011;54614;47.576;7.524;2023-06-14T06:17:22;7.43;;;3.83;;
67816;SDS011;54614;47.576;7.524;2023-06-14T06:19:47;6.93;;;3.60;;
67816;SDS011;54614;47.576;7.524;2023-06-14T06:22:13;8.07;;;4.27;;
67816;SDS011;54614;47.576;7.524;2023-06-14T06:24:39;7.30;;;4.70;;
67816;SDS011;54614;47.576;7.524;2023-06-14T06:27:05;8.07;;;4.30;;
67816;SDS011;54614;47.576;7.524;2023-06-14T06:29:33;7.50;;;4.97;;
67816;SDS011;54614;47.576;7.524;2023-06-14T06:32:00;7.00;;;4.73;;
67816;SDS011;54614;47.576;7.524;2023-06-14T06:34:26;8.47;;;5.00;;
67816;SDS011;54614;47.576;7.524;2023-06-14T06:36:52;5.77;;;4.73;;
67816;SDS011;54614;47.576;7.524;2023-06-14T06:39:18;6.70;;;4.70;;
67816;SDS011;54614;47.576;7.524;2023-06-14T06:41:44;8.37;;;5.10;;
67816;SDS011;54614;47.576;7.524;2023-06-14T06:44:10;7.63;;;4.90;;
67816;SDS011;54614;47.576;7.524;2023-06-14T06:46:36;6.10;;;4.80;;
67816;SDS011;54614;47.576;7.524;2023-06-14T06:49:06;8.40;;;5.20;;
67816;SDS011;54614;47.576;7.524;2023-06-14T06:51:32;7.73;;;5.17;;
67816;SDS011;54614;47.576;7.524;2023-06-14T06:54:00;9.73;;;5.70;;
67816;SDS011;54614;47.576;7.524;2023-06-14T06:56:25;7.20;;;5.00;;
67816;SDS011;54614;47.576;7.524;2023-06-14T06:58:51;7.73;;;5.00;;
67816;SDS011;54614;47.576;7.524;2023-06-14T07:01:17;8.73;;;5.47;;
67816;SDS011;54614;47.576;7.524;2023-06-14T07:03:46;7.83;;;4.90;;
67816;SDS011;54614;47.576;7.524;2023-06-14T07:06:12;7.20;;;5.13;;
67816;SDS011;54614;47.576;7.524;2023-06-14T07:08:38;8.13;;;5.07;;
67816;SDS011;54614;47.576;7.524;2023-06-14T07:11:04;6.80;;;4.80;;
67816;SDS011;54614;47.576;7.524;2023-06-14T07:13:31;11.83;;;5.57;;
67816;SDS011;54614;47.576;7.524;2023-06-14T07:15:59;11.60;;;5.07;;
67816;SDS011;54614;47.576;7.524;2023-06-14T07:18:26;14.50;;;5.20;;
67816;SDS011;54614;47.576;7.524;2023-06-14T07:20:53;9.93;;;5.03;;
67816;SDS011;54614;47.576;7.524;2023-06-14T07:23:19;9.00;;;5.13;;
67816;SDS011;54614;47.576;7.524;2023-06-14T07:25:46;11.87;;;5.10;;
67816;SDS011;54614;47.576;7.524;2023-06-14T07:28:12;17.03;;;5.20;;
67816;SDS011;54614;47.576;7.524;2023-06-14T07:30:37;154.83;;;41.33;;
67816;SDS011;54614;47.576;7.524;2023-06-14T07:33:03;66.00;;;22.13;;
67816;SDS011;54614;47.576;7.524;2023-06-14T07:35:29;46.70;;;14.67;;
67816;SDS011;54614;47.576;7.524;2023-06-14T07:37:55;35.00;;;11.93;;
67816;SDS011;54614;47.576;7.524;2023-06-14T07:40:21;34.43;;;11.47;;
67816;SDS011;54614;47.576;7.524;2023-06-14T07:42:46;37.20;;;11.07;;
67816;SDS011;54614;47.576;7.524;2023-06-14T07:45:13;31.00;;;9.80;;
67816;SDS011;54614;47.576;7.524;2023-06-14T07:47:39;21.07;;;8.50;;
67816;SDS011;54614;47.576;7.524;2023-06-14T07:50:05;18.73;;;7.93;;
67816;SDS011;54614;47.576;7.524;2023-06-14T07:52:31;16.53;;;7.27;;
67816;SDS011;54614;47.576;7.524;2023-06-14T07:54:57;12.83;;;6.70;;
67816;SDS011;54614;47.576;7.524;2023-06-14T07:57:23;16.03;;;6.40;;
67816;SDS011;54614;47.576;7.524;2023-06-14T07:59:49;13.33;;;6.10;;
67816;SDS011;54614;47.576;7.524;2023-06-14T08:02:15;15.10;;;5.70;;
67816;SDS011;54614;47.576;7.524;2023-06-14T08:04:41;18.30;;;6.53;;
67816;SDS011;54614;47.576;7.524;2023-06-14T08:07:07;22.30;;;5.93;;
67816;SDS011;54614;47.576;7.524;2023-06-14T08:09:35;21.52;;;6.13;;
67816;SDS011;54614;47.576;7.524;2023-06-14T08:12:03;25.07;;;5.50;;
67816;SDS011;54614;47.576;7.524;2023-06-14T08:14:32;13.23;;;5.23;;
67816;SDS011;54614;47.576;7.524;2023-06-14T08:16:59;21.90;;;5.13;;
67816;SDS011;54614;47.576;7.524;2023-06-14T08:19:25;25.83;;;7.00;;
67816;SDS011;54614;47.576;7.524;2023-06-14T08:21:50;33.00;;;5.50;;
67816;SDS011;54614;47.576;7.524;2023-06-14T08:24:16;25.83;;;5.63;;
67816;SDS011;54614;47.576;7.524;2023-06-14T08:26:43;21.27;;;5.17;;
67816;SDS011;54614;47.576;7.524;2023-06-14T08:29:09;18.03;;;5.27;;
67816;SDS011;54614;47.576;7.524;2023-06-14T08:31:35;21.50;;;5.70;;
67816;SDS011;54614;47.576;7.524;2023-06-14T08:34:01;20.07;;;5.60;;
67816;SDS011;54614;47.576;7.524;2023-06-14T08:36:27;22.73;;;5.03;;
67816;SDS011;54614;47.576;7.524;2023-06-14T08:38:52;18.47;;;5.13;;
67816;SDS011;54614;47.576;7.524;2023-06-14T08:41:20;19.23;;;4.83;;
67816;SDS011;54614;47.576;7.524;2023-06-14T08:43:51;24.42;;;5.47;;
67816;SDS011;54614;47.576;7.524;2023-06-14T08:46:17;40.47;;;5.33;;
67816;SDS011;54614;47.576;7.524;2023-06-14T08:48:51;14.55;;;4.70;;
67816;SDS011;54614;47.576;7.524;2023-06-14T08:51:18;19.87;;;4.97;;
67816;SDS011;54614;47.576;7.524;2023-06-14T08:53:47;50.13;;;6.35;;
67816;SDS011;54614;47.576;7.524;2023-06-14T08:56:26;32.53;;;5.63;;
67816;SDS011;54614;47.576;7.524;2023-06-14T08:58:53;21.37;;;4.97;;
67816;SDS011;54614;47.576;7.524;2023-06-14T09:01:21;19.13;;;4.93;;
67816;SDS011;54614;47.576;7.524;2023-06-14T09:03:48;21.63;;;4.53;;
67816;SDS011;54614;47.576;7.524;2023-06-14T09:06:15;14.90;;;4.20;;
67816;SDS011;54614;47.576;7.524;2023-06-14T09:08:43;25.25;;;4.80;;
67816;SDS011;54614;47.576;7.524;2023-06-14T09:11:14;30.33;;;4.78;;
67816;SDS011;54614;47.576;7.524;2023-06-14T09:13:44;18.58;;;4.50;;
67816;SDS011;54614;47.576;7.524;2023-06-14T09:16:14;25.98;;;4.60;;
67816;SDS011;54614;47.576;7.524;2023-06-14T09:18:42;19.98;;;4.35;;
67816;SDS011;54614;47.576;7.524;2023-06-14T09:21:12;20.83;;;4.70;;
67816;SDS011;54614;47.576;7.524;2023-06-14T09:23:41;24.52;;;4.50;;
67816;SDS011;54614;47.576;7.524;2023-06-14T09:26:09;15.30;;;4.13;;
67816;SDS011;54614;47.576;7.524;2023-06-14T09:28:55;17.63;;;4.05;;
67816;SDS011;54614;47.576;7.524;2023-06-14T09:31:21;16.13;;;4.18;;
67816;SDS011;54614;47.576;7.524;2023-06-14T09:33:48;16.33;;;4.20;;
67816;SDS011;54614;47.576;7.524;2023-06-14T09:36:24;13.73;;;3.80;;
67816;SDS011;54614;47.576;7.524;2023-06-14T09:38:54;12.00;;;3.85;;
67816;SDS011;54614;47.576;7.524;2023-06-14T09:41:36;11.23;;;3.90;;
67816;SDS011;54614;47.576;7.524;2023-06-14T09:44:09;12.85;;;3.83;;
67816;SDS011;54614;47.576;7.524;2023-06-14T09:46:37;9.00;;;3.70;;
67816;SDS011;54614;47.576;7.524;2023-06-14T09:49:03;12.68;;;3.90;;
67816;SDS011;54614;47.576;7.524;2023-06-14T09:51:30;8.45;;;3.88;;
67816;SDS011;54614;47.576;7.524;2023-06-14T09:54:02;10.60;;;3.63;;
67816;SDS011;54614;47.576;7.524;2023-06-14T09:56:34;8.68;;;3.70;;
67816;SDS011;54614;47.576;7.524;2023-06-14T09:59:06;7.47;;;3.60;;
67816;SDS011;54614;47.576;7.524;2023-06-14T10:01:35;10.10;;;3.60;;
67816;SDS011;54614;47.576;7.524;2023-06-14T10:04:09;13.80;;;3.78;;
67816;SDS011;54614;47.576;7.524;2023-06-14T10:06:42;11.30;;;3.78;;
67816;SDS011;54614;47.576;7.524;2023-06-14T10:09:11;11.32;;;4.00;;
67816;SDS011;54614;47.576;7.524;2023-06-14T10:11:37;8.85;;;3.47;;
67816;SDS011;54614;47.576;7.524;2023-06-14T10:14:09;8.35;;;3.28;;
67816;SDS011;54614;47.576;7.524;2023-06-14T10:16:39;9.15;;;3.67;;
67816;SDS011;54614;47.576;7.524;2023-06-14T10:19:29;9.05;;;3.50;;
67816;SDS011;54614;47.576;7.524;2023-06-14T10:22:21;6.32;;;3.90;;
67816;SDS011;54614;47.576;7.524;2023-06-14T10:24:57;8.15;;;3.50;;
67816;SDS011;54614;47.576;7.524;2023-06-14T10:27:24;7.70;;;3.50;;
67816;SDS011;54614;47.576;7.524;2023-06-14T10:32:20;11.98;;;4.10;;
67816;SDS011;54614;47.576;7.524;2023-06-14T10:34:59;15.82;;;3.70;;
67816;SDS011;54614;47.576;7.524;2023-06-14T10:37:32;13.95;;;3.80;;
67816;SDS011;54614;47.576;7.524;2023-06-14T10:39:58;11.93;;;3.80;;
67816;SDS011;54614;47.576;7.524;2023-06-14T10:42:33;6.35;;;3.58;;
67816;SDS011;54614;47.576;7.524;2023-06-14T10:45:00;8.52;;;3.75;;
67816;SDS011;54614;47.576;7.524;2023-06-14T10:50:06;7.88;;;3.60;;
67816;SDS011;54614;47.576;7.524;2023-06-14T10:52:38;6.22;;;3.70;;
67816;SDS011;54614;47.576;7.524;2023-06-14T10:55:10;9.05;;;3.63;;
67816;SDS011;54614;47.576;7.524;2023-06-14T10:57:46;6.40;;;3.40;;
67816;SDS011;54614;47.576;7.524;2023-06-14T11:00:28;8.85;;;3.58;;
67816;SDS011;54614;47.576;7.524;2023-06-14T11:05:53;6.38;;;3.63;;
67816;SDS011;54614;47.576;7.524;2023-06-14T11:11:25;6.70;;;3.40;;
67816;SDS011;54614;47.576;7.524;2023-06-14T11:14:00;6.45;;;3.60;;
67816;SDS011;54614;47.576;7.524;2023-06-14T11:16:27;7.15;;;3.33;;
67816;SDS011;54614;47.576;7.524;2023-06-14T11:18:54;5.55;;;3.40;;
67816;SDS011;54614;47.576;7.524;2023-06-14T11:21:20;6.60;;;3.40;;
67816;SDS011;54614;47.576;7.524;2023-06-14T11:23:49;7.28;;;3.42;;
67816;SDS011;54614;47.576;7.524;2023-06-14T11:26:23;5.78;;;3.35;;
67816;SDS011;54614;47.576;7.524;2023-06-14T11:28:54;6.75;;;3.72;;
67816;SDS011;54614;47.576;7.524;2023-06-14T11:31:22;6.85;;;3.70;;
67816;SDS011;54614;47.576;7.524;2023-06-14T11:33:58;8.57;;;3.75;;
67816;SDS011;54614;47.576;7.524;2023-06-14T11:36:28;4.57;;;3.30;;
67816;SDS011;54614;47.576;7.524;2023-06-14T11:38:59;8.57;;;3.60;;
67816;SDS011;54614;47.576;7.524;2023-06-14T11:41:38;6.97;;;3.50;;
67816;SDS011;54614;47.576;7.524;2023-06-14T11:44:07;9.60;;;3.83;;
67816;SDS011;54614;47.576;7.524;2023-06-14T11:46:34;4.95;;;3.60;;
67816;SDS011;54614;47.576;7.524;2023-06-14T11:49:00;5.82;;;3.42;;
67816;SDS011;54614;47.576;7.524;2023-06-14T11:51:32;5.28;;;3.30;;
67816;SDS011;54614;47.576;7.524;2023-06-14T11:54:00;6.28;;;3.53;;
67816;SDS011;54614;47.576;7.524;2023-06-14T11:56:28;7.40;;;3.70;;
67816;SDS011;54614;47.576;7.524;2023-06-14T11:58:56;9.13;;;3.72;;
67816;SDS011;54614;47.576;7.524;2023-06-14T12:01:23;7.47;;;3.22;;
67816;SDS011;54614;47.576;7.524;2023-06-14T12:03:51;7.32;;;3.60;;
67816;SDS011;54614;47.576;7.524;2023-06-14T12:06:28;4.10;;;3.40;;
67816;SDS011;54614;47.576;7.524;2023-06-14T12:09:03;5.45;;;3.35;;
67816;SDS011;54614;47.576;7.524;2023-06-14T12:11:32;5.45;;;3.40;;
67816;SDS011;54614;47.576;7.524;2023-06-14T12:14:00;5.55;;;3.35;;
67816;SDS011;54614;47.576;7.524;2023-06-14T12:16:30;6.25;;;3.17;;
67816;SDS011;54614;47.576;7.524;2023-06-14T12:19:09;5.75;;;3.42;;
67816;SDS011;54614;47.576;7.524;2023-06-14T12:21:39;6.13;;;3.22;;
67816;SDS011;54614;47.576;7.524;2023-06-14T12:24:06;4.90;;;3.20;;
67816;SDS011;54614;47.576;7.524;2023-06-14T12:26:33;5.47;;;3.47;;
67816;SDS011;54614;47.576;7.524;2023-06-14T12:29:04;6.15;;;3.40;;
67816;SDS011;54614;47.576;7.524;2023-06-14T12:31:31;5.00;;;3.20;;
67816;SDS011;54614;47.576;7.524;2023-06-14T12:33:57;6.05;;;3.40;;
67816;SDS011;54614;47.576;7.524;2023-06-14T12:36:24;5.40;;;3.42;;
67816;SDS011;54614;47.576;7.524;2023-06-14T12:38:50;5.03;;;3.30;;
67816;SDS011;54614;47.576;7.524;2023-06-14T12:41:20;5.35;;;3.42;;
67816;SDS011;54614;47.576;7.524;2023-06-14T12:43:47;11.43;;;3.30;;
67816;SDS011;54614;47.576;7.524;2023-06-14T12:46:13;6.75;;;3.42;;
67816;SDS011;54614;47.576;7.524;2023-06-14T12:48:39;5.05;;;3.45;;
67816;SDS011;54614;47.576;7.524;2023-06-14T12:51:05;9.55;;;3.30;;
67816;SDS011;54614;47.576;7.524;2023-06-14T12:53:31;6.82;;;3.53;;
67816;SDS011;54614;47.576;7.524;2023-06-14T12:55:56;4.22;;;2.90;;
67816;SDS011;54614;47.576;7.524;2023-06-14T12:58:22;7.07;;;3.42;;
67816;SDS011;54614;47.576;7.524;2023-06-14T13:00:48;9.25;;;3.30;;
67816;SDS011;54614;47.576;7.524;2023-06-14T13:03:15;4.75;;;3.00;;
67816;SDS011;54614;47.576;7.524;2023-06-14T13:05:42;6.00;;;3.05;;
67816;SDS011;54614;47.576;7.524;2023-06-14T13:08:08;4.57;;;3.28;;
67816;SDS011;54614;47.576;7.524;2023-06-14T13:10:34;3.92;;;3.35;;
67816;SDS011;54614;47.576;7.524;2023-06-14T13:13:00;3.95;;;3.10;;
67816;SDS011;54614;47.576;7.524;2023-06-14T13:15:27;3.92;;;3.00;;
67816;SDS011;54614;47.576;7.524;2023-06-14T13:17:53;5.38;;;3.38;;
67816;SDS011;54614;47.576;7.524;2023-06-14T13:20:18;4.47;;;3.30;;
67816;SDS011;54614;47.576;7.524;2023-06-14T13:22:44;4.18;;;3.35;;
67816;SDS011;54614;47.576;7.524;2023-06-14T13:25:10;4.85;;;3.40;;
67816;SDS011;54614;47.576;7.524;2023-06-14T13:27:36;4.00;;;3.17;;
67816;SDS011;54614;47.576;7.524;2023-06-14T13:30:02;4.93;;;3.40;;
67816;SDS011;54614;47.576;7.524;2023-06-14T13:32:30;4.65;;;3.42;;
67816;SDS011;54614;47.576;7.524;2023-06-14T13:34:56;3.90;;;2.95;;
67816;SDS011;54614;47.576;7.524;2023-06-14T13:37:22;3.60;;;3.28;;
67816;SDS011;54614;47.576;7.524;2023-06-14T13:39:49;6.13;;;3.45;;
67816;SDS011;54614;47.576;7.524;2023-06-14T13:42:14;4.65;;;3.30;;
67816;SDS011;54614;47.576;7.524;2023-06-14T13:44:40;4.22;;;3.28;;
67816;SDS011;54614;47.576;7.524;2023-06-14T13:47:06;3.70;;;3.40;;
67816;SDS011;54614;47.576;7.524;2023-06-14T13:49:32;5.55;;;3.28;;
67816;SDS011;54614;47.576;7.524;2023-06-14T13:52:00;4.18;;;3.45;;
67816;SDS011;54614;47.576;7.524;2023-06-14T13:54:26;5.13;;;3.30;;
67816;SDS011;54614;47.576;7.524;2023-06-14T13:56:52;6.45;;;3.33;;
67816;SDS011;54614;47.576;7.524;2023-06-14T13:59:18;5.15;;;3.28;;
67816;SDS011;54614;47.576;7.524;2023-06-14T14:01:44;5.03;;;3.13;;
67816;SDS011;54614;47.576;7.524;2023-06-14T14:04:10;5.03;;;3.40;;
67816;SDS011;54614;47.576;7.524;2023-06-14T14:06:36;6.18;;;3.25;;
67816;SDS011;54614;47.576;7.524;2023-06-14T14:09:02;3.92;;;3.45;;
67816;SDS011;54614;47.576;7.524;2023-06-14T14:11:28;3.70;;;2.85;;
67816;SDS011;54614;47.576;7.524;2023-06-14T14:13:58;7.53;;;3.20;;
67816;SDS011;54614;47.576;7.524;2023-06-14T14:16:24;4.60;;;3.20;;
67816;SDS011;54614;47.576;7.524;2023-06-14T14:18:50;5.80;;;3.20;;
67816;SDS011;54614;47.576;7.524;2023-06-14T14:21:16;5.07;;;3.13;;
67816;SDS011;54614;47.576;7.524;2023-06-14T14:23:42;3.67;;;3.03;;
67816;SDS011;54614;47.576;7.524;2023-06-14T14:26:09;4.65;;;3.00;;
67816;SDS011;54614;47.576;7.524;2023-06-14T14:28:34;5.38;;;3.58;;
67816;SDS011;54614;47.576;7.524;2023-06-14T14:31:01;3.53;;;3.22;;
67816;SDS011;54614;47.576;7.524;2023-06-14T14:33:27;5.05;;;3.08;;
67816;SDS011;54614;47.576;7.524;2023-06-14T14:35:52;4.70;;;3.30;;
67816;SDS011;54614;47.576;7.524;2023-06-14T14:38:18;4.68;;;3.30;;
67816;SDS011;54614;47.576;7.524;2023-06-14T14:40:44;5.47;;;3.33;;
67816;SDS011;54614;47.576;7.524;2023-06-14T14:43:10;4.25;;;3.28;;
67816;SDS011;54614;47.576;7.524;2023-06-14T14:45:36;5.57;;;3.28;;
67816;SDS011;54614;47.576;7.524;2023-06-14T14:48:02;3.70;;;3.10;;
67816;SDS011;54614;47.576;7.524;2023-06-14T14:50:28;3.80;;;3.17;;
67816;SDS011;54614;47.576;7.524;2023-06-14T14:52:55;10.50;;;3.42;;
67816;SDS011;54614;47.576;7.524;2023-06-14T14:55:21;5.60;;;3.13;;
67816;SDS011;54614;47.576;7.524;2023-06-14T14:57:47;7.70;;;3.55;;
67816;SDS011;54614;47.576;7.524;2023-06-14T15:00:13;9.15;;;3.40;;
67816;SDS011;54614;47.576;7.524;2023-06-14T15:02:39;4.70;;;3.15;;
67816;SDS011;54614;47.576;7.524;2023-06-14T15:05:05;4.40;;;3.47;;